Flight Track Log - Related Links

Times and Time Zones

All times are in EST time to prevent confusion due to time zone crossing. See the BJS618 flight status page for this flight to view local times or setup timezone preferences in your user account.

Time Position Orientation Groundspeed Altitude Reporting Facility
EST Latitude Longitude Course Direction KTS MPH feet Rate Location/Type
Wed 08:00:21 PM 29.6633 -95.7136 303° West 210 242 2,000  Level Houston Center
Wed 08:01:06 PM 29.7056 -95.7161 357° North 201 231 2,000 590 Level Houston Center
Wed 08:01:22 PM 29.7225 -95.7164 359° North 198 228 2,600 2,164 Climbing Houston Center
Wed 08:02:07 PM 29.7669 -95.7169 359° North 210 242 4,200 2,262 Climbing Houston Center
Wed 08:02:23 PM 29.7917 -95.7156 North 257 296 4,900 3,387 Climbing Houston Center
Wed 08:03:09 PM 29.8419 -95.7164 359° North 256 295 7,700 3,444 Climbing Houston Center
Wed 08:04:11 PM 29.9203 -95.7111 North 283 326 11,100 3,774 Climbing Houston Center
Wed 08:05:13 PM 30.0222 -95.7053 North 351 404 15,500 3,919 Climbing Houston Center
Wed 08:06:15 PM 30.1253 -95.6578 22° Northeast 394 453 19,200 3,581 Climbing Houston Center
Wed 08:07:17 PM 30.2311 -95.6047 23° Northeast 409 471 22,900 2,323 Climbing Houston Center
Wed 08:08:19 PM 30.3453 -95.5475 23° Northeast 440 506 24,000 537 Climbing Houston Center
Wed 08:09:20 PM 30.4858 -95.4794 23° Northeast 453 521 24,000  Level Houston Center
Wed 08:10:22 PM 30.6050 -95.4878 357° North 429 494 24,000  Level Houston Center
Wed 08:11:24 PM 30.7072 -95.5306 340° North 417 480 24,000  Level Houston Center
Wed 08:12:26 PM 30.8156 -95.5811 338° Northwest 416 479 24,000  Level Houston Center
Wed 08:13:28 PM 30.9478 -95.6417 339° North 422 486 24,000  Level Houston Center
Wed 08:14:30 PM 31.0589 -95.6928 338° Northwest 425 489 24,000  Level Houston Center
Wed 08:15:32 PM 31.1703 -95.7439 339° North 427 491 24,000  Level Houston Center
Wed 08:16:34 PM 31.2819 -95.7947 339° North 428 493 24,000  Level Houston Center
Wed 08:17:35 PM 31.3936 -95.8456 339° North 429 494 24,000  Level Houston Center
Wed 08:18:37 PM 31.5050 -95.8986 338° Northwest 429 494 24,000  Level Houston Center
Wed 08:19:39 PM 31.6164 -95.9500 339° North 430 495 24,000  Level Houston Center
Wed 08:20:14 PM 31.6958 -95.9875 338° Northwest 422 486 24,000  Level Fort Worth Center
Wed 08:21:13 PM 31.8133 -96.0467 337° Northwest 434 499 24,000 -504 Level Fort Worth Center
Wed 08:22:13 PM 31.9206 -96.0942 339° North 429 494 23,000 -1,700 Descending Fort Worth Center
Wed 08:23:13 PM 32.0211 -96.1417 338° Northwest 415 478 20,600 -2,529 Descending Fort Worth Center
Wed 08:24:14 PM 32.1219 -96.1894 338° Northwest 393 452 17,900 -2,678 Descending Fort Worth Center
Wed 08:25:14 PM 32.2183 -96.2372 337° Northwest 382 440 15,200 -2,600 Descending Fort Worth Center
Wed 08:26:14 PM 32.2939 -96.2853 332° Northwest 352 405 12,700 -2,571 Descending Fort Worth Center
Wed 08:27:13 PM 32.3842 -96.3383 334° Northwest 331 381 10,100 -1,850 Descending Fort Worth Center
Wed 08:28:14 PM 32.4492 -96.3769 333° Northwest 304 350 9,000 -1,041 Descending Fort Worth Center
Wed 08:29:14 PM 32.5247 -96.4228 333° Northwest 286 329 8,000 -1,250 Descending Fort Worth Center
Wed 08:30:14 PM 32.5856 -96.4592 333° Northwest 286 329 6,500 -1,450 Descending Fort Worth Center
Wed 08:31:14 PM 32.6611 -96.5053 333° Northwest 281 323 5,100 -750 Descending Fort Worth Center
Wed 08:32:14 PM 32.7156 -96.5542 323° Northwest 275 316 5,000 -50 Descending Fort Worth Center
Wed 08:33:14 PM 32.7786 -96.6178 320° Northwest 275 316 5,000 -264 Level Fort Worth Center
Wed 08:33:45 PM 32.8167 -96.6500 325° Northwest 273 314 4,600 -725 Descending Dallas / Fort Worth TRACON
Wed 08:34:45 PM 32.8667 -96.7000 320° Northwest 232 267 3,900 -700 Descending Dallas / Fort Worth TRACON
Wed 08:35:45 PM 32.9167 -96.7500 320° Northwest 207 238 3,200 -500 Descending Dallas / Fort Worth TRACON
Wed 08:36:45 PM 32.9500 -96.7833 320° Northwest 194 223 2,900 -450 Descending Dallas / Fort Worth TRACON
Wed 08:37:45 PM 33.0000 -96.7833 360° North 169 194 2,300 -650 Descending Dallas / Fort Worth TRACON
Wed 08:38:45 PM 33.0167 -96.8333 292° West 121 139 1,600 -700 Descending Dallas / Fort Worth TRACON
Wed 08:39:45 PM 32.9833 -96.8333 180° South 110 127 900 -700 Descending Dallas / Fort Worth TRACON
Wed 08:42:00 PM 32.9667 -96.8333 North  Level FlightAware Approximate

Login

Don't have an account? Register now (free) for customized features, flight alerts, and more!